Time;durP1;ratioP1;P1;durP2;ratioP2;P2;SDS_P1;SDS_P2;PMS_P1;PMS_P2;Temp;Humidity;BMP_temperature;BMP_pressure;BME280_temperature;BME280_humidity;BME280_pressure;Samples;Min_cycle;Max_cycle;Signal;HPM_P1;HPM_P2
2023/12/08 06:00:43;;;;;;;17.95;8.65;;;3.50;73.10;;;;;;4676999;23;20274;-77
2023/12/08 06:02:45;;;;;;;15.20;9.45;;;3.50;73.40;;;;;;4080288;29;20043;-79
2023/12/08 06:04:47;;;;;;;16.50;9.70;;;3.40;74.20;;;;;;4071214;29;20469;-77
2023/12/08 06:06:49;;;;;;;15.65;9.80;;;3.50;73.80;;;;;;4072385;29;20056;-77
2023/12/08 06:08:51;;;;;;;17.92;9.98;;;3.50;73.90;;;;;;4086570;29;20055;-77
2023/12/08 06:10:53;;;;;;;17.88;10.30;;;3.50;74.60;;;;;;4083830;29;20052;-77
2023/12/08 06:12:54;;;;;;;16.35;9.52;;;3.30;75.10;;;;;;4071132;29;20048;-78
2023/12/08 06:14:59;;;;;;;17.92;10.95;;;3.50;74.00;;;;;;4070805;29;20100;-77
2023/12/08 06:17:02;;;;;;;15.57;10.02;;;3.50;74.20;;;;;;4080362;29;20044;-77
2023/12/08 06:19:05;;;;;;;17.00;9.70;;;3.30;75.00;;;;;;4086539;29;20052;-77
2023/12/08 06:21:07;;;;;;;16.70;10.38;;;3.40;75.00;;;;;;4085932;29;20044;-77
2023/12/08 06:23:08;;;;;;;16.38;10.43;;;3.40;75.60;;;;;;4086467;29;20059;-77
2023/12/08 06:25:10;;;;;;;17.85;11.07;;;3.40;75.70;;;;;;4086530;29;20055;-77
2023/12/08 06:27:12;;;;;;;18.02;10.85;;;3.40;75.60;;;;;;4086443;29;20051;-78
2023/12/08 06:29:14;;;;;;;18.48;10.85;;;3.50;75.60;;;;;;4086146;29;20454;-77
2023/12/08 06:31:15;;;;;;;16.75;10.48;;;3.40;75.70;;;;;;4086056;29;20052;-77
2023/12/08 06:33:18;;;;;;;16.30;10.95;;;3.50;76.00;;;;;;4086038;29;20065;-77
2023/12/08 06:35:20;;;;;;;18.85;10.95;;;3.50;76.40;;;;;;4086321;29;20059;-77
2023/12/08 06:37:22;;;;;;;21.63;12.80;;;3.50;76.70;;;;;;4086320;29;20047;-78
2023/12/08 06:39:23;;;;;;;19.52;11.57;;;3.50;76.90;;;;;;4075625;29;20056;-77
2023/12/08 06:41:25;;;;;;;20.50;12.32;;;3.40;77.60;;;;;;4070586;29;20052;-77
2023/12/08 06:43:27;;;;;;;22.52;12.40;;;3.40;77.80;;;;;;4070972;29;20056;-77
2023/12/08 06:45:28;;;;;;;19.13;11.93;;;3.40;78.10;;;;;;4086167;29;20478;-77
2023/12/08 06:47:30;;;;;;;18.73;11.25;;;3.40;78.50;;;;;;4085906;29;20193;-77
2023/12/08 06:49:33;;;;;;;18.33;11.57;;;3.40;78.60;;;;;;4084289;29;20052;-77
2023/12/08 06:51:36;;;;;;;19.52;12.10;;;3.40;78.10;;;;;;4070428;29;20420;-77
2023/12/08 06:53:37;;;;;;;17.83;10.57;;;3.40;78.60;;;;;;4070526;29;20051;-77
2023/12/08 06:55:39;;;;;;;19.25;11.23;;;3.30;79.60;;;;;;4070256;29;20462;-77
2023/12/08 06:57:41;;;;;;;19.63;11.55;;;3.40;78.70;;;;;;4082108;29;20047;-77
2023/12/08 06:59:43;;;;;;;18.33;11.68;;;3.40;78.50;;;;;;4085567;29;20190;-78
2023/12/08 07:01:45;;;;;;;20.98;12.70;;;3.40;78.70;;;;;;4085504;29;20056;-78
2023/12/08 07:03:47;;;;;;;17.98;11.25;;;3.30;79.30;;;;;;4084453;29;20052;-77
2023/12/08 07:05:50;;;;;;;20.58;11.20;;;3.40;79.20;;;;;;4085749;29;20039;-77
2023/12/08 07:07:52;;;;;;;21.38;11.13;;;3.40;79.30;;;;;;4081058;29;20485;-77
2023/12/08 07:09:54;;;;;;;18.52;10.52;;;3.40;80.10;;;;;;4070013;29;20044;-78
2023/12/08 07:11:55;;;;;;;19.63;12.02;;;3.40;80.60;;;;;;4070183;29;20048;-77
2023/12/08 07:13:56;;;;;;;19.58;11.75;;;3.40;81.20;;;;;;4070037;29;20099;-77
2023/12/08 07:15:58;;;;;;;18.90;11.82;;;3.40;80.80;;;;;;4070124;29;20056;-77
2023/12/08 07:18:00;;;;;;;18.90;11.80;;;3.40;80.30;;;;;;4070110;29;20048;-78
2023/12/08 07:20:03;;;;;;;17.95;11.63;;;3.50;80.30;;;;;;4070102;29;20573;-77
2023/12/08 07:22:06;;;;;;;20.73;12.13;;;3.50;80.40;;;;;;4069846;29;20052;-77
2023/12/08 07:24:08;;;;;;;19.75;12.13;;;3.50;79.80;;;;;;4071097;29;20144;-77
2023/12/08 07:26:10;;;;;;;19.83;11.90;;;3.50;80.20;;;;;;4078381;29;20560;-77
2023/12/08 07:28:12;;;;;;;18.88;11.75;;;3.50;80.90;;;;;;4085665;29;20075;-77
2023/12/08 07:30:14;;;;;;;19.92;11.80;;;3.50;80.90;;;;;;4085553;29;20552;-77
2023/12/08 07:32:16;;;;;;;19.77;11.82;;;3.50;80.90;;;;;;4077379;29;20080;-77
2023/12/08 07:34:17;;;;;;;18.92;11.70;;;3.50;81.20;;;;;;4071874;29;20454;-77
2023/12/08 07:36:19;;;;;;;21.10;12.35;;;3.50;81.10;;;;;;4069666;29;20096;-77
2023/12/08 07:38:22;;;;;;;21.75;13.68;;;3.40;81.40;;;;;;4069819;29;20048;-77
2023/12/08 07:40:24;;;;;;;20.55;12.07;;;3.40;82.30;;;;;;4069798;29;20111;-77
2023/12/08 07:42:26;;;;;;;20.08;12.32;;;3.50;82.60;;;;;;4069724;29;20429;-77
2023/12/08 07:44:27;;;;;;;18.30;11.85;;;3.50;81.90;;;;;;4069684;29;20048;-77
2023/12/08 07:46:29;;;;;;;18.75;11.73;;;3.50;82.00;;;;;;4069438;29;20048;-77
2023/12/08 07:48:30;;;;;;;18.17;11.80;;;3.40;81.70;;;;;;4069594;29;20052;-77
2023/12/08 07:50:32;;;;;;;19.20;12.18;;;3.50;81.90;;;;;;4069326;29;20052;-77
2023/12/08 07:52:34;;;;;;;19.33;11.95;;;3.50;81.80;;;;;;4069037;29;20052;-77
2023/12/08 07:54:37;;;;;;;19.10;11.68;;;3.50;81.60;;;;;;4070539;29;20474;-77
2023/12/08 07:56:39;;;;;;;18.92;11.73;;;3.50;81.90;;;;;;4084524;29;20047;-77
2023/12/08 07:58:41;;;;;;;18.83;11.88;;;3.50;82.00;;;;;;4077177;29;20048;-78
2023/12/08 08:00:43;;;;;;;22.85;12.50;;;3.50;82.50;;;;;;4069268;29;20412;-77
2023/12/08 08:02:45;;;;;;;20.15;12.27;;;3.50;82.60;;;;;;4069478;29;20040;-77
2023/12/08 08:04:47;;;;;;;20.40;12.27;;;3.50;82.70;;;;;;4070393;29;20048;-77
2023/12/08 08:06:49;;;;;;;20.10;12.52;;;3.50;82.80;;;;;;4069385;29;20048;-77
2023/12/08 08:08:51;;;;;;;21.48;13.40;;;3.50;83.10;;;;;;4069220;29;20099;-77
2023/12/08 08:10:54;;;;;;;21.77;12.45;;;3.50;83.10;;;;;;4069197;29;20092;-77
2023/12/08 08:12:55;;;;;;;21.08;12.82;;;3.40;83.30;;;;;;4069362;29;20135;-77
2023/12/08 08:14:56;;;;;;;22.33;12.35;;;3.50;83.20;;;;;;4069190;29;20504;-77
2023/12/08 08:16:58;;;;;;;23.67;13.85;;;3.50;83.40;;;;;;4068958;29;20052;-77
2023/12/08 08:19:00;;;;;;;19.92;11.90;;;3.50;83.80;;;;;;4069130;29;20478;-77
2023/12/08 08:21:02;;;;;;;21.25;13.25;;;3.50;83.30;;;;;;4068992;29;20056;-77
2023/12/08 08:23:04;;;;;;;22.13;12.40;;;3.50;83.30;;;;;;4080256;29;20048;-78
2023/12/08 08:25:07;;;;;;;22.23;12.75;;;3.50;83.40;;;;;;4084579;29;20457;-77
2023/12/08 08:27:10;;;;;;;21.00;12.30;;;3.60;83.60;;;;;;4084541;29;20059;-77
2023/12/08 08:29:12;;;;;;;22.33;13.25;;;3.60;83.40;;;;;;4084776;29;20052;-78
2023/12/08 08:31:17;;;;;;;21.58;12.60;;;3.60;83.30;;;;;;4084297;29;20044;-77
2023/12/08 08:33:19;;;;;;;19.80;12.35;;;3.70;83.40;;;;;;4074911;29;20107;-77
2023/12/08 08:35:21;;;;;;;19.60;12.55;;;3.70;83.60;;;;;;4068812;29;20059;-77
2023/12/08 08:37:23;;;;;;;19.73;12.25;;;3.70;84.20;;;;;;4069994;29;20505;-78
2023/12/08 08:39:25;;;;;;;22.25;13.85;;;3.70;84.10;;;;;;4075621;29;20051;-77
2023/12/08 08:41:27;;;;;;;22.38;13.35;;;3.40;85.90;;;;;;4084545;29;20056;-78
2023/12/08 08:43:30;;;;;;;21.83;13.50;;;3.60;86.00;;;;;;4084632;29;20103;-77
2023/12/08 08:45:32;;;;;;;20.63;12.93;;;3.50;86.40;;;;;;4084332;29;20382;-78
2023/12/08 08:47:34;;;;;;;23.75;13.10;;;3.60;85.90;;;;;;4068709;29;20044;-78
2023/12/08 08:49:36;;;;;;;22.38;13.10;;;3.70;85.40;;;;;;4068966;29;20112;-77
2023/12/08 08:51:38;;;;;;;24.27;13.98;;;3.70;85.20;;;;;;4068868;29;20055;-77
2023/12/08 08:53:40;;;;;;;20.13;12.65;;;3.80;85.10;;;;;;4068606;29;20131;-77
2023/12/08 08:55:42;;;;;;;22.08;13.98;;;3.80;85.20;;;;;;4069695;29;20043;-77
2023/12/08 08:57:44;;;;;;;20.67;13.20;;;3.80;85.00;;;;;;4082890;29;20453;-78
2023/12/08 08:59:47;;;;;;;22.33;13.60;;;3.80;84.80;;;;;;4084331;29;20126;-78
2023/12/08 09:01:48;;;;;;;20.58;13.60;;;3.90;85.00;;;;;;4070677;29;20498;-78
2023/12/08 09:03:50;;;;;;;21.45;13.95;;;3.90;85.40;;;;;;4069138;29;20056;-78
2023/12/08 09:05:51;;;;;;;21.45;14.05;;;3.80;85.50;;;;;;4073115;29;20474;-76
2023/12/08 09:07:53;;;;;;;22.48;13.15;;;3.90;85.60;;;;;;4084698;29;20099;-77
2023/12/08 09:09:55;;;;;;;23.05;14.25;;;3.90;85.60;;;;;;4087806;29;20481;-77
2023/12/08 09:11:57;;;;;;;20.02;13.23;;;4.00;85.60;;;;;;4087783;29;20096;-78
2023/12/08 09:13:59;;;;;;;19.70;12.77;;;4.00;85.70;;;;;;4086043;29;20048;-78
2023/12/08 09:16:02;;;;;;;20.83;14.05;;;4.00;85.70;;;;;;4087486;29;20110;-77
2023/12/08 09:18:04;;;;;;;22.60;13.50;;;4.00;85.60;;;;;;4087564;29;20099;-77
2023/12/08 09:20:14;;;;;;;22.98;13.60;;;4.00;86.20;;;;;;4087524;29;20051;-77
2023/12/08 09:22:15;;;;;;;18.80;12.45;;;4.00;86.80;;;;;;4087829;29;20047;-77
2023/12/08 09:24:17;;;;;;;19.80;12.80;;;4.10;87.00;;;;;;4087441;29;20457;-77
2023/12/08 09:26:19;;;;;;;19.95;11.93;;;4.10;86.90;;;;;;4087372;29;20047;-78
2023/12/08 09:28:21;;;;;;;22.35;12.55;;;4.10;86.90;;;;;;4085555;29;20043;-78
2023/12/08 09:30:23;;;;;;;18.10;11.60;;;4.10;87.10;;;;;;4071478;29;20056;-78
2023/12/08 09:32:27;;;;;;;18.75;10.75;;;4.20;88.00;;;;;;4071567;29;20112;-77
2023/12/08 09:34:29;;;;;;;19.75;11.93;;;4.20;87.70;;;;;;4071812;29;20127;-77
2023/12/08 09:36:30;;;;;;;19.52;11.15;;;4.30;87.90;;;;;;4071424;29;20560;-78
2023/12/08 09:38:32;;;;;;;22.42;13.48;;;4.30;88.00;;;;;;4071439;29;20088;-77
2023/12/08 09:40:37;;;;;;;19.40;12.57;;;4.30;87.40;;;;;;4071445;29;20099;-77
2023/12/08 09:42:44;;;;;;;22.48;13.45;;;4.30;87.40;;;;;;4071454;29;20048;-78
2023/12/08 09:44:48;;;;;;;18.42;12.15;;;4.30;87.60;;;;;;4071427;29;20052;-77
2023/12/08 09:46:55;;;;;;;22.33;13.57;;;4.40;87.10;;;;;;4071324;29;20441;-77
2023/12/08 09:49:01;;;;;;;23.65;14.90;;;4.40;86.80;;;;;;4071395;29;20048;-77
2023/12/08 09:51:04;;;;;;;24.70;14.95;;;4.40;86.90;;;;;;4071400;29;20097;-78
2023/12/08 09:53:08;;;;;;;25.23;15.93;;;4.50;86.80;;;;;;4071307;29;20052;-77
2023/12/08 09:55:11;;;;;;;23.20;14.48;;;4.40;87.20;;;;;;4071335;29;20055;-78
2023/12/08 09:57:13;;;;;;;21.02;13.75;;;4.40;87.40;;;;;;4078378;29;20051;-77
2023/12/08 09:59:17;;;;;;;21.00;13.90;;;4.40;87.10;;;;;;4086888;29;20083;-77
2023/12/08 10:01:20;;;;;;;23.10;13.38;;;4.50;87.00;;;;;;4086464;29;20058;-77
2023/12/08 10:03:22;;;;;;;24.38;15.13;;;4.50;87.10;;;;;;4086872;29;20056;-78
2023/12/08 10:05:25;;;;;;;25.95;14.65;;;4.50;87.10;;;;;;4086944;29;20127;-78
2023/12/08 10:07:31;;;;;;;25.75;14.75;;;4.50;87.00;;;;;;4086729;29;20087;-77
2023/12/08 10:09:35;;;;;;;32.85;18.77;;;4.50;87.00;;;;;;4086831;29;20504;-77
2023/12/08 10:11:38;;;;;;;29.20;17.30;;;4.60;87.30;;;;;;4080561;29;20786;-78
2023/12/08 10:13:40;;;;;;;23.10;16.10;;;4.60;87.20;;;;;;4081889;29;20047;-78
2023/12/08 10:15:42;;;;;;;26.75;16.70;;;4.60;87.20;;;;;;4086313;29;20110;-78
2023/12/08 10:17:47;;;;;;;25.45;16.25;;;4.60;87.00;;;;;;4086581;29;20143;-78
2023/12/08 10:19:51;;;;;;;25.92;15.52;;;4.70;86.80;;;;;;4086581;29;20091;-78
2023/12/08 10:22:05;;;;;;;22.67;14.68;;;4.60;86.80;;;;;;4086607;29;20122;-77
2023/12/08 10:24:09;;;;;;;25.15;14.88;;;4.60;86.70;;;;;;4086548;29;20421;-77
2023/12/08 10:26:12;;;;;;;22.88;14.15;;;4.70;86.80;;;;;;4073799;29;20055;-77
2023/12/08 10:28:14;;;;;;;22.10;13.90;;;4.70;86.70;;;;;;4086331;29;20115;-77
2023/12/08 10:30:15;;;;;;;20.17;13.10;;;4.70;86.60;;;;;;4086414;29;20051;-77
2023/12/08 10:32:18;;;;;;;18.73;12.38;;;4.70;86.70;;;;;;4086503;29;20106;-76
2023/12/08 10:34:20;;;;;;;20.77;12.50;;;4.70;86.70;;;;;;4086499;29;20114;-78
2023/12/08 10:36:22;;;;;;;19.13;11.85;;;4.70;87.10;;;;;;4086178;29;20051;-78
2023/12/08 10:38:25;;;;;;;19.60;12.32;;;4.70;86.70;;;;;;4086334;29;20465;-78
2023/12/08 10:40:27;;;;;;;19.48;11.82;;;4.80;86.60;;;;;;4076888;29;20056;-78
2023/12/08 10:42:28;;;;;;;19.83;12.20;;;4.70;87.00;;;;;;4070737;29;20048;-79
2023/12/08 10:44:30;;;;;;;20.10;12.65;;;4.70;87.10;;;;;;4072126;29;20099;-79
2023/12/08 10:46:32;;;;;;;22.10;13.50;;;4.80;87.10;;;;;;4076902;29;20111;-78
2023/12/08 10:48:37;;;;;;;22.30;13.82;;;4.70;87.10;;;;;;4085218;29;20048;-79
2023/12/08 10:50:40;;;;;;;25.50;15.57;;;4.80;88.10;;;;;;4086185;29;20052;-79
2023/12/08 10:52:42;;;;;;;26.65;16.17;;;4.80;87.40;;;;;;4084629;29;20126;-79
2023/12/08 10:54:45;;;;;;;24.88;15.70;;;4.80;88.00;;;;;;4086054;29;20486;-78
2023/12/08 10:56:48;;;;;;;24.33;14.93;;;4.80;88.10;;;;;;4085963;29;20398;-77
2023/12/08 10:59:00;;;;;;;24.83;15.95;;;4.80;88.00;;;;;;4086210;29;20135;-78
2023/12/08 11:01:11;;;;;;;25.90;16.15;;;4.90;88.40;;;;;;4085646;29;20114;-77
2023/12/08 11:03:19;;;;;;;25.98;17.27;;;4.90;88.10;;;;;;4086274;29;20052;-75
2023/12/08 11:05:30;;;;;;;26.45;15.45;;;4.90;88.10;;;;;;4086161;29;20051;-76
2023/12/08 11:07:33;;;;;;;24.02;17.23;;;4.90;87.90;;;;;;4085818;29;20087;-76
2023/12/08 11:09:40;;;;;;;25.90;16.35;;;4.90;89.00;;;;;;4085622;29;20095;-78
2023/12/08 11:11:53;;;;;;;25.42;16.20;;;5.00;88.70;;;;;;4085856;29;20052;-76
2023/12/08 11:14:06;;;;;;;26.38;16.98;;;5.00;88.40;;;;;;4085834;29;20051;-76
2023/12/08 11:16:28;;;;;;;24.50;16.25;;;5.10;89.20;;;;;;4085861;29;20051;-77
2023/12/08 11:18:30;;;;;;;23.65;15.57;;;5.10;88.80;;;;;;4070835;29;20052;-77
2023/12/08 11:20:32;;;;;;;23.85;14.90;;;5.10;88.90;;;;;;4079674;29;20415;-77
2023/12/08 11:22:34;;;;;;;28.25;17.85;;;5.20;88.80;;;;;;4085839;29;20047;-77
2023/12/08 11:24:37;;;;;;;25.38;16.15;;;5.20;89.20;;;;;;4085678;29;20363;-77
2023/12/08 11:26:49;;;;;;;28.63;17.15;;;5.20;88.60;;;;;;4084723;29;20134;-77
2023/12/08 11:29:02;;;;;;;27.70;17.55;;;5.20;89.00;;;;;;4085741;29;20111;-77
2023/12/08 11:31:14;;;;;;;27.73;17.75;;;5.20;89.20;;;;;;4085635;29;20138;-77
2023/12/08 11:33:26;;;;;;;29.05;17.45;;;5.20;89.00;;;;;;4085461;29;20047;-77
2023/12/08 11:35:30;;;;;;;25.10;16.30;;;5.30;89.00;;;;;;4085415;29;20051;-77
2023/12/08 11:37:34;;;;;;;25.90;15.65;;;5.30;89.00;;;;;;4074594;29;20179;-77
2023/12/08 11:39:43;;;;;;;26.70;15.32;;;5.30;89.10;;;;;;4075449;29;20083;-77
2023/12/08 11:41:48;;;;;;;24.58;15.80;;;5.40;89.50;;;;;;4085306;29;20048;-78
2023/12/08 11:43:50;;;;;;;23.25;15.43;;;5.40;89.60;;;;;;4085327;29;20048;-76
2023/12/08 11:45:53;;;;;;;25.17;15.73;;;5.40;89.60;;;;;;4085211;29;20236;-77
2023/12/08 11:47:57;;;;;;;24.05;14.60;;;5.50;90.00;;;;;;4081335;29;20060;-77
2023/12/08 11:49:59;;;;;;;21.70;14.52;;;5.50;89.80;;;;;;4069596;29;20090;-76
2023/12/08 11:52:21;;;;;;;23.65;15.50;;;5.50;90.00;;;;;;4069603;29;20131;-76
2023/12/08 11:54:21;;;;;;;24.23;15.05;;;5.50;90.10;;;;;;4069662;29;20131;-77
2023/12/08 11:56:41;;;;;;;21.30;14.00;;;5.60;90.20;;;;;;4069498;29;20048;-76
2023/12/08 11:58:44;;;;;;;19.60;12.80;;;5.60;90.30;;;;;;4069589;29;20050;-75
2023/12/08 12:00:48;;;;;;;20.35;13.40;;;5.60;90.30;;;;;;4069444;29;20107;-76
2023/12/08 12:02:51;;;;;;;18.88;12.63;;;5.70;90.40;;;;;;4069530;29;20048;-75
2023/12/08 12:04:53;;;;;;;18.73;12.60;;;5.70;90.60;;;;;;4069498;29;20446;-77
2023/12/08 12:06:55;;;;;;;19.10;13.13;;;5.80;90.50;;;;;;4069474;29;20063;-77
2023/12/08 12:08:58;;;;;;;21.27;13.95;;;5.80;90.50;;;;;;4069547;29;20103;-78
2023/12/08 12:11:03;;;;;;;22.33;15.02;;;5.80;90.60;;;;;;4069475;29;20051;-78
2023/12/08 12:13:06;;;;;;;23.05;15.98;;;5.80;90.80;;;;;;4069292;29;20482;-78
2023/12/08 12:15:11;;;;;;;27.38;17.75;;;5.90;91.30;;;;;;4069104;29;20047;-77
2023/12/08 12:17:14;;;;;;;23.48;15.75;;;5.90;91.00;;;;;;4070195;29;20052;-77
2023/12/08 12:19:15;;;;;;;25.80;16.63;;;5.90;91.30;;;;;;4069053;29;20051;-77
2023/12/08 12:21:18;;;;;;;29.13;17.80;;;5.80;91.40;;;;;;4068950;29;20048;-77
2023/12/08 12:23:20;;;;;;;26.08;17.17;;;5.80;91.30;;;;;;4069067;29;20522;-77
2023/12/08 12:25:22;;;;;;;25.92;17.58;;;5.90;91.30;;;;;;4069005;29;20044;-77
2023/12/08 12:27:22;;;;;;;26.60;16.80;;;5.90;91.30;;;;;;4070273;29;20107;-76
2023/12/08 12:29:26;;;;;;;26.42;18.00;;;5.90;91.20;;;;;;4069085;29;20052;-76
2023/12/08 12:31:29;;;;;;;24.00;16.23;;;5.90;91.30;;;;;;4068957;29;20491;-76
2023/12/08 12:33:31;;;;;;;23.08;15.68;;;6.00;91.40;;;;;;4068747;29;20056;-77
2023/12/08 12:35:33;;;;;;;25.77;15.55;;;6.00;91.30;;;;;;4068852;29;20056;-75
2023/12/08 12:37:35;;;;;;;22.77;14.07;;;6.00;91.50;;;;;;4068738;29;20111;-78
2023/12/08 12:39:36;;;;;;;24.27;14.63;;;6.10;91.40;;;;;;4068883;29;20131;-78
2023/12/08 12:41:38;;;;;;;23.80;15.15;;;6.10;91.50;;;;;;4069073;29;20051;-78
2023/12/08 12:43:40;;;;;;;16.98;11.00;;;6.10;91.40;;;;;;4070590;29;20094;-77
2023/12/08 12:45:42;;;;;;;15.50;10.13;;;6.20;91.60;;;;;;4084625;29;20058;-77
2023/12/08 12:47:45;;;;;;;14.30;9.68;;;6.20;91.70;;;;;;4084687;29;20062;-78
2023/12/08 12:50:03;;;;;;;16.27;10.55;;;6.20;91.50;;;;;;4084739;29;20048;-78
2023/12/08 12:52:20;;;;;;;18.02;11.45;;;6.20;91.50;;;;;;4084440;29;20052;-78
2023/12/08 12:54:33;;;;;;;20.65;13.48;;;6.30;91.50;;;;;;4084360;29;20103;-77
2023/12/08 12:56:37;;;;;;;18.70;12.65;;;6.30;91.40;;;;;;4084421;29;20095;-77
2023/12/08 12:58:39;;;;;;;21.38;14.40;;;6.30;91.30;;;;;;4081824;29;20056;-76
2023/12/08 13:00:42;;;;;;;21.58;14.25;;;6.30;91.60;;;;;;4075436;29;20494;-77
2023/12/08 13:02:45;;;;;;;26.25;17.17;;;6.40;91.60;;;;;;4077648;29;20058;-79
2023/12/08 13:04:46;;;;;;;23.90;16.23;;;6.30;92.30;;;;;;4084372;29;20058;-79
2023/12/08 13:06:48;;;;;;;21.52;14.48;;;6.30;92.30;;;;;;4083335;29;20079;-79
2023/12/08 13:08:51;;;;;;;66.13;36.35;;;6.30;92.20;;;;;;4080667;29;20055;-77
2023/12/08 13:10:54;;;;;;;35.47;22.52;;;6.40;92.30;;;;;;4084001;29;20054;-79
2023/12/08 13:12:56;;;;;;;24.48;15.68;;;6.30;92.40;;;;;;4084392;29;20120;-77
2023/12/08 13:14:58;;;;;;;28.95;18.60;;;6.30;92.40;;;;;;4084312;29;20115;-78
2023/12/08 13:17:00;;;;;;;30.45;18.35;;;6.40;92.50;;;;;;4078475;29;20044;-80
2023/12/08 13:19:03;;;;;;;29.75;18.63;;;6.40;93.00;;;;;;4084394;29;20043;-79
2023/12/08 13:21:05;;;;;;;26.48;17.45;;;6.30;92.60;;;;;;4084251;29;20052;-80
2023/12/08 13:23:07;;;;;;;26.55;18.13;;;6.40;92.60;;;;;;4070771;29;20447;-80
2023/12/08 13:25:09;;;;;;;31.27;20.70;;;6.40;92.60;;;;;;4069390;29;20056;-79
2023/12/08 13:27:11;;;;;;;31.58;19.20;;;6.40;92.70;;;;;;4068854;29;20055;-79
2023/12/08 13:29:14;;;;;;;27.75;19.02;;;6.30;92.70;;;;;;4068730;29;20052;-78
2023/12/08 13:31:16;;;;;;;33.15;19.65;;;6.40;92.70;;;;;;4077611;29;20047;-78
2023/12/08 13:33:17;;;;;;;30.33;20.48;;;6.40;92.60;;;;;;4075759;29;20142;-78
2023/12/08 13:35:20;;;;;;;33.80;21.77;;;6.40;92.60;;;;;;4072864;29;20052;-77
2023/12/08 13:37:22;;;;;;;32.05;20.73;;;6.40;92.50;;;;;;4068807;29;20052;-77
2023/12/08 13:39:24;;;;;;;27.38;16.15;;;6.40;92.50;;;;;;4075264;29;20051;-78
2023/12/08 13:41:26;;;;;;;27.48;18.10;;;6.40;92.40;;;;;;4082229;29;20047;-78
2023/12/08 13:43:28;;;;;;;21.63;14.55;;;6.50;92.80;;;;;;4082265;29;20051;-78
2023/12/08 13:45:29;;;;;;;18.55;12.13;;;6.40;92.50;;;;;;4080181;29;20103;-78
2023/12/08 13:47:30;;;;;;;18.13;12.80;;;6.50;92.50;;;;;;4081555;29;20471;-78
2023/12/08 13:49:33;;;;;;;20.27;13.63;;;6.50;92.40;;;;;;4079767;29;20056;-78
2023/12/08 13:51:36;;;;;;;16.90;11.85;;;6.50;92.40;;;;;;4084730;29;20110;-78
2023/12/08 13:53:37;;;;;;;16.98;11.40;;;6.50;92.30;;;;;;4085214;29;20139;-78
2023/12/08 13:55:39;;;;;;;16.15;10.82;;;6.50;92.40;;;;;;4085277;29;20438;-78
2023/12/08 13:57:40;;;;;;;15.02;10.00;;;6.50;92.40;;;;;;4085258;29;20102;-78
2023/12/08 13:59:42;;;;;;;15.27;9.55;;;6.60;92.50;;;;;;4084370;29;20421;-78
2023/12/08 14:01:45;;;;;;;16.65;9.57;;;6.60;92.50;;;;;;4083309;29;20080;-78
2023/12/08 14:03:45;;;;;;;15.50;9.35;;;6.60;92.40;;;;;;4083340;29;20056;-78
2023/12/08 14:05:47;;;;;;;12.82;8.68;;;6.60;92.50;;;;;;4084705;29;20058;-78
2023/12/08 14:07:52;;;;;;;13.13;9.00;;;6.60;92.40;;;;;;4073866;29;20477;-78
2023/12/08 14:09:54;;;;;;;18.80;12.00;;;6.70;92.30;;;;;;4076970;29;20060;-79
2023/12/08 14:11:55;;;;;;;19.27;12.75;;;6.70;92.30;;;;;;4074203;29;20048;-79
2023/12/08 14:13:57;;;;;;;16.55;10.70;;;6.70;92.30;;;;;;4084911;29;20056;-78
2023/12/08 14:15:58;;;;;;;15.60;10.50;;;6.70;92.20;;;;;;4083481;29;20043;-79
2023/12/08 14:18:00;;;;;;;14.80;9.05;;;6.70;92.30;;;;;;4068845;29;20092;-79
2023/12/08 14:20:02;;;;;;;15.80;9.48;;;6.70;92.20;;;;;;4067046;29;20111;-79
2023/12/08 14:22:04;;;;;;;13.50;9.13;;;6.70;92.20;;;;;;4073789;29;20102;-79
2023/12/08 14:24:08;;;;;;;14.30;9.45;;;6.80;92.50;;;;;;4084587;29;20047;-79
2023/12/08 14:26:10;;;;;;;13.30;8.55;;;6.80;92.20;;;;;;4081864;29;20062;-80
2023/12/08 14:28:12;;;;;;;14.52;9.25;;;6.80;92.10;;;;;;4068906;29;20091;-80
2023/12/08 14:30:13;;;;;;;15.07;11.30;;;6.80;92.10;;;;;;4071337;29;20060;-80
2023/12/08 14:32:16;;;;;;;20.73;13.68;;;6.80;92.20;;;;;;4068715;29;20418;-79
2023/12/08 14:34:18;;;;;;;18.90;12.90;;;6.90;92.20;;;;;;4070545;29;20044;-80
2023/12/08 14:36:20;;;;;;;17.02;12.13;;;6.90;92.20;;;;;;4084419;29;20067;-79
2023/12/08 14:38:21;;;;;;;13.18;9.27;;;6.90;92.00;;;;;;4084144;29;20756;-79
2023/12/08 14:40:24;;;;;;;14.32;10.02;;;6.90;91.90;;;;;;4083531;29;20103;-79
2023/12/08 14:42:26;;;;;;;20.15;12.95;;;6.90;91.90;;;;;;4084306;29;20118;-78
2023/12/08 14:44:28;;;;;;;22.33;15.10;;;6.90;91.90;;;;;;4084388;29;20048;-79
2023/12/08 14:46:30;;;;;;;21.52;15.02;;;6.90;92.30;;;;;;4084313;29;20062;-78
2023/12/08 14:48:32;;;;;;;20.45;14.20;;;6.90;92.10;;;;;;4084440;29;20099;-79
2023/12/08 14:50:34;;;;;;;21.58;13.50;;;7.00;92.00;;;;;;4084033;29;20138;-79
2023/12/08 14:52:36;;;;;;;18.58;11.75;;;6.90;91.90;;;;;;4077262;29;20084;-79
2023/12/08 14:54:38;;;;;;;19.30;13.65;;;6.90;91.90;;;;;;4077142;29;20561;-79
2023/12/08 14:56:45;;;;;;;21.38;14.45;;;7.00;91.80;;;;;;4084108;29;20474;-79
2023/12/08 14:58:46;;;;;;;21.00;15.40;;;7.00;91.80;;;;;;4084012;29;20052;-79
2023/12/08 15:00:49;;;;;;;24.17;16.58;;;7.00;91.90;;;;;;4083713;29;20068;-78
2023/12/08 15:02:51;;;;;;;22.50;15.77;;;7.00;91.70;;;;;;4082773;29;20056;-78
2023/12/08 15:04:53;;;;;;;20.38;14.60;;;7.00;91.70;;;;;;4083387;29;20047;-78
2023/12/08 15:06:55;;;;;;;29.33;20.20;;;6.90;91.90;;;;;;4070655;29;20056;-79
2023/12/08 15:08:56;;;;;;;30.10;19.77;;;6.90;91.90;;;;;;4075784;29;20056;-78
2023/12/08 15:10:57;;;;;;;26.88;17.65;;;7.00;91.90;;;;;;4083905;29;20632;-80
2023/12/08 15:13:00;;;;;;;27.98;18.98;;;6.90;92.00;;;;;;4083782;29;20095;-80
2023/12/08 15:15:03;;;;;;;22.52;14.90;;;7.00;92.30;;;;;;4083691;29;20051;-80
2023/12/08 15:17:06;;;;;;;22.73;15.35;;;6.90;91.90;;;;;;4083625;29;20099;-78
2023/12/08 15:19:08;;;;;;;24.30;17.90;;;6.90;91.90;;;;;;4081167;29;20090;-77
2023/12/08 15:21:16;;;;;;;17.00;11.45;;;7.00;92.00;;;;;;4071591;29;20056;-79
2023/12/08 15:23:17;;;;;;;14.93;9.90;;;6.90;91.80;;;;;;4068130;29;20062;-78
2023/12/08 15:25:19;;;;;;;14.02;9.57;;;6.90;91.80;;;;;;4072358;29;20051;-77
2023/12/08 15:27:20;;;;;;;22.80;14.80;;;6.90;91.80;;;;;;4083526;29;20051;-78
2023/12/08 15:29:24;;;;;;;45.38;24.65;;;6.90;91.80;;;;;;4083092;29;20119;-76
2023/12/08 15:31:26;;;;;;;36.47;21.08;;;6.90;91.80;;;;;;4083584;29;20462;-77
2023/12/08 15:33:27;;;;;;;21.10;13.43;;;6.90;91.80;;;;;;4074716;29;20178;-79
2023/12/08 15:35:29;;;;;;;17.75;10.73;;;6.90;91.70;;;;;;4078879;29;20051;-78
2023/12/08 15:37:31;;;;;;;14.55;9.57;;;6.90;91.70;;;;;;4082138;29;20048;-79
2023/12/08 15:39:33;;;;;;;13.10;8.68;;;6.90;91.80;;;;;;4078990;29;20055;-80
2023/12/08 15:41:35;;;;;;;12.93;8.90;;;6.90;91.80;;;;;;4081323;29;20055;-79
2023/12/08 15:43:37;;;;;;;14.85;9.02;;;6.90;91.70;;;;;;4080808;29;20099;-79
2023/12/08 15:45:41;;;;;;;13.38;9.05;;;6.90;91.70;;;;;;4067774;29;20091;-78
2023/12/08 15:47:42;;;;;;;14.23;8.60;;;6.90;91.70;;;;;;4076245;29;20553;-79
2023/12/08 15:49:47;;;;;;;14.57;9.18;;;6.90;91.70;;;;;;4078700;29;20078;-79
2023/12/08 15:51:48;;;;;;;15.70;8.50;;;7.00;91.70;;;;;;4076731;29;20044;-80
2023/12/08 15:53:50;;;;;;;13.60;8.77;;;7.00;91.70;;;;;;4080115;29;20048;-80
2023/12/08 15:55:52;;;;;;;13.40;8.77;;;7.00;91.60;;;;;;4082263;29;20111;-79
2023/12/08 15:57:53;;;;;;;14.90;8.73;;;7.00;91.60;;;;;;4082953;29;20043;-80
2023/12/08 15:59:55;;;;;;;14.05;8.65;;;7.00;91.60;;;;;;4083126;29;20056;-80
2023/12/08 16:01:59;;;;;;;13.25;8.07;;;7.00;91.50;;;;;;4082946;29;20599;-80
2023/12/08 16:04:02;;;;;;;11.73;7.88;;;7.00;91.50;;;;;;4082778;29;20138;-80
2023/12/08 16:06:04;;;;;;;10.63;7.43;;;7.00;91.40;;;;;;4082972;29;20055;-80
2023/12/08 16:08:06;;;;;;;11.77;7.30;;;7.00;91.30;;;;;;4082646;29;20056;-80
2023/12/08 16:10:09;;;;;;;9.70;6.85;;;7.00;91.40;;;;;;4078847;29;20190;-80
2023/12/08 16:12:11;;;;;;;11.55;7.10;;;7.00;91.40;;;;;;4082375;29;20139;-80
2023/12/08 16:14:13;;;;;;;10.85;6.97;;;7.00;91.30;;;;;;4080716;29;20098;-80
2023/12/08 16:16:15;;;;;;;10.68;7.07;;;7.10;91.20;;;;;;4070931;29;20044;-78
2023/12/08 16:18:18;;;;;;;11.65;7.05;;;7.10;91.20;;;;;;4081512;29;20465;-78
2023/12/08 16:20:19;;;;;;;9.82;6.22;;;7.10;91.10;;;;;;4080916;29;20066;-78
2023/12/08 16:22:21;;;;;;;10.63;8.23;;;7.10;91.20;;;;;;4082176;29;20103;-77
2023/12/08 16:24:23;;;;;;;12.65;8.27;;;7.10;91.20;;;;;;4082823;29;20490;-76
2023/12/08 16:26:25;;;;;;;10.20;6.57;;;7.10;91.00;;;;;;4081577;29;20103;-77
2023/12/08 16:28:27;;;;;;;10.23;5.88;;;7.10;90.70;;;;;;4082853;29;20130;-78
2023/12/08 16:30:29;;;;;;;23.63;15.02;;;7.10;90.70;;;;;;4082667;29;20087;-78
2023/12/08 16:32:34;;;;;;;17.35;9.05;;;7.10;90.70;;;;;;4082692;29;20051;-78